createdAt,value
2022-09-26T00:01:29.242Z,3.00
2022-09-26T00:04:01.851Z,2.75
2022-09-26T00:06:29.340Z,2.45
2022-09-26T00:08:56.687Z,2.40
2022-09-26T00:11:27.234Z,2.40
2022-09-26T00:13:56.775Z,2.47
2022-09-26T00:16:24.845Z,2.80
2022-09-26T00:18:54.084Z,3.30
2022-09-26T00:21:24.905Z,2.90
2022-09-26T00:23:52.479Z,2.97
2022-09-26T00:26:21.409Z,3.65
2022-09-26T00:28:48.584Z,3.58
2022-09-26T00:31:19.200Z,3.42
2022-09-26T00:33:47.003Z,3.03
2022-09-26T00:36:13.857Z,3.38
2022-09-26T00:38:40.731Z,3.25
2022-09-26T00:41:08.151Z,3.28
2022-09-26T00:43:39.108Z,3.17
2022-09-26T00:46:18.353Z,3.35
2022-09-26T00:48:49.060Z,3.88
2022-09-26T00:51:15.943Z,3.45
2022-09-26T00:53:46.901Z,3.95
2022-09-26T00:56:42.398Z,3.55
2022-09-26T00:59:22.327Z,3.72
2022-09-26T01:01:55.167Z,4.22
2022-09-26T01:04:23.400Z,3.30
2022-09-26T01:06:50.116Z,3.20
2022-09-26T01:09:17.052Z,3.28
2022-09-26T01:11:44.663Z,3.30
2022-09-26T01:14:13.636Z,3.10
2022-09-26T01:16:44.461Z,2.80
2022-09-26T01:19:49.465Z,3.05
2022-09-26T01:22:47.399Z,3.67
2022-09-26T01:25:49.340Z,2.97
2022-09-26T01:28:34.533Z,2.83
2022-09-26T01:31:35.211Z,2.60
2022-09-26T01:34:19.315Z,2.80
2022-09-26T01:37:02.594Z,2.95
2022-09-26T01:40:02.545Z,2.75
2022-09-26T01:42:36.509Z,2.67
2022-09-26T01:45:19.154Z,2.28
2022-09-26T01:48:02.375Z,2.78
2022-09-26T01:50:55.413Z,2.80
2022-09-26T01:53:25.051Z,2.92
2022-09-26T01:56:02.297Z,2.78
2022-09-26T01:58:36.972Z,2.78
2022-09-26T02:01:10.627Z,2.70
2022-09-26T02:03:43.804Z,2.47
2022-09-26T02:06:16.102Z,2.90
2022-09-26T02:08:48.628Z,2.35
2022-09-26T02:11:19.620Z,2.38
2022-09-26T02:13:56.844Z,2.45
2022-09-26T02:16:37.200Z,2.60
2022-09-26T02:19:11.255Z,2.55
2022-09-26T02:21:37.984Z,2.53
2022-09-26T02:24:04.799Z,2.60
2022-09-26T02:26:32.121Z,2.40
2022-09-26T02:28:59.173Z,2.53
2022-09-26T02:31:29.879Z,2.63
2022-09-26T02:33:57.031Z,2.45
2022-09-26T02:36:24.207Z,3.03
2022-09-26T02:38:50.957Z,2.40
2022-09-26T02:41:38.066Z,3.00
2022-09-26T02:44:29.185Z,2.25
2022-09-26T02:46:58.966Z,2.65
2022-09-26T02:49:54.428Z,2.50
2022-09-26T02:52:44.575Z,2.90
2022-09-26T02:55:20.591Z,2.60
2022-09-26T02:58:15.280Z,2.33
2022-09-26T03:01:01.268Z,2.83
2022-09-26T03:03:38.025Z,2.33
2022-09-26T03:06:08.899Z,2.58
2022-09-26T03:08:43.323Z,2.50
2022-09-26T03:11:13.721Z,2.70
2022-09-26T03:13:42.033Z,3.05
2022-09-26T03:16:10.223Z,2.70
2022-09-26T03:18:42.234Z,2.50
2022-09-26T03:21:09.175Z,2.70
2022-09-26T03:23:36.216Z,2.95
2022-09-26T03:26:09.795Z,2.60
2022-09-26T03:28:37.925Z,2.47
2022-09-26T03:31:05.427Z,2.80
2022-09-26T03:33:32.260Z,2.50
2022-09-26T03:36:00.042Z,2.70
2022-09-26T03:38:27.710Z,2.88
2022-09-26T03:40:56.956Z,3.03
2022-09-26T03:43:24.386Z,3.13
2022-09-26T03:45:51.476Z,2.92
2022-09-26T03:48:18.332Z,3.30
2022-09-26T03:50:45.003Z,2.60
2022-09-26T03:53:11.834Z,2.78
2022-09-26T03:55:38.708Z,2.85
2022-09-26T03:58:05.394Z,2.85
2022-09-26T04:00:32.187Z,3.50
2022-09-26T04:03:02.968Z,2.65
2022-09-26T04:05:29.790Z,2.78
2022-09-26T04:07:56.551Z,3.08
2022-09-26T04:10:24.181Z,2.70
2022-09-26T04:12:50.858Z,2.25
2022-09-26T04:15:17.865Z,3.10
2022-09-26T04:17:44.599Z,2.42
2022-09-26T04:20:11.300Z,2.47
2022-09-26T04:22:38.019Z,2.70
2022-09-26T04:25:05.167Z,2.60
2022-09-26T04:27:31.918Z,2.90
2022-09-26T04:29:58.613Z,2.83
2022-09-26T04:32:25.213Z,2.65
2022-09-26T04:34:51.944Z,2.70
2022-09-26T04:37:21.069Z,2.63
2022-09-26T04:39:50.628Z,2.60
2022-09-26T04:42:17.639Z,2.58
2022-09-26T04:44:44.315Z,2.30
2022-09-26T04:47:11.354Z,2.65
2022-09-26T04:49:38.153Z,2.42
2022-09-26T04:52:04.970Z,2.20
2022-09-26T04:54:31.745Z,2.55
2022-09-26T04:57:00.526Z,2.80
2022-09-26T04:59:27.231Z,2.30
2022-09-26T05:01:54.896Z,2.80
2022-09-26T05:04:27.245Z,2.08
2022-09-26T05:06:57.803Z,2.88
2022-09-26T05:09:25.386Z,2.70
2022-09-26T05:11:52.840Z,2.55
2022-09-26T05:14:19.714Z,2.90
2022-09-26T05:16:47.383Z,2.97
2022-09-26T05:19:14.327Z,2.83
2022-09-26T05:21:42.973Z,3.08
2022-09-26T05:24:28.350Z,3.30
2022-09-26T05:26:55.873Z,3.10
2022-09-26T05:29:22.620Z,3.38
2022-09-26T05:31:50.315Z,3.40
2022-09-26T05:34:20.042Z,3.13
2022-09-26T05:36:47.668Z,3.13
2022-09-26T05:39:32.745Z,3.30
2022-09-26T05:41:59.639Z,2.85
2022-09-26T05:44:27.332Z,2.80
2022-09-26T05:46:56.757Z,2.45
2022-09-26T05:49:23.654Z,2.67
2022-09-26T05:51:51.419Z,2.92
2022-09-26T05:54:18.165Z,2.63
2022-09-26T05:56:44.981Z,2.92
2022-09-26T05:59:11.719Z,2.88
2022-09-26T06:01:38.583Z,2.53
2022-09-26T06:04:05.300Z,2.70
2022-09-26T06:06:32.032Z,2.67
2022-09-26T06:08:58.780Z,2.72
2022-09-26T06:11:31.209Z,2.65
2022-09-26T06:14:00.583Z,2.60
2022-09-26T06:16:28.357Z,2.50
2022-09-26T06:18:55.801Z,2.50
2022-09-26T06:21:23.690Z,2.40
2022-09-26T06:23:50.477Z,2.42
2022-09-26T06:26:23.778Z,2.88
2022-09-26T06:28:57.972Z,2.83
2022-09-26T06:31:26.162Z,2.50
2022-09-26T06:33:54.407Z,2.45
2022-09-26T06:36:23.174Z,2.40
2022-09-26T06:38:50.170Z,2.65
2022-09-26T06:41:17.290Z,2.58
2022-09-26T06:43:45.341Z,2.80
2022-09-26T06:46:13.766Z,2.28
2022-09-26T06:48:41.090Z,2.88
2022-09-26T06:51:08.861Z,2.40
2022-09-26T06:53:35.502Z,2.60
2022-09-26T06:56:02.359Z,2.75
2022-09-26T06:58:29.087Z,2.45
2022-09-26T07:00:56.542Z,2.60
2022-09-26T07:03:25.288Z,2.78
2022-09-26T07:05:56.393Z,2.25
2022-09-26T07:08:32.590Z,2.40
2022-09-26T07:11:30.459Z,2.40
2022-09-26T07:13:51.045Z,2.63
2022-09-26T07:16:17.923Z,2.40
2022-09-26T07:18:44.681Z,2.50
2022-09-26T07:21:11.313Z,2.22
2022-09-26T07:23:37.995Z,2.20
2022-09-26T07:26:05.032Z,2.50
2022-09-26T07:28:31.673Z,2.05
2022-09-26T07:30:59.596Z,2.28
2022-09-26T07:33:26.478Z,2.50
2022-09-26T07:35:53.217Z,2.42
2022-09-26T07:38:19.995Z,2.40
2022-09-26T07:40:46.790Z,2.03
2022-09-26T07:43:20.042Z,2.30
2022-09-26T07:46:06.105Z,2.42
2022-09-26T07:48:51.465Z,2.20
2022-09-26T07:51:19.743Z,2.22
2022-09-26T07:53:46.718Z,2.10
2022-09-26T07:56:13.580Z,2.03
2022-09-26T07:58:41.998Z,1.92
2022-09-26T08:01:18.352Z,1.98
2022-09-26T08:03:48.040Z,2.00
2022-09-26T08:06:20.113Z,1.83
2022-09-26T08:08:48.172Z,2.13
2022-09-26T08:11:16.977Z,1.60
2022-09-26T08:13:44.096Z,1.35
2022-09-26T08:16:11.773Z,1.42
2022-09-26T08:18:38.620Z,1.55
2022-09-26T08:21:05.824Z,1.73
2022-09-26T08:23:33.839Z,1.40
2022-09-26T08:26:04.138Z,1.75
2022-09-26T08:28:30.877Z,1.90
2022-09-26T08:31:00.562Z,1.73
2022-09-26T08:33:27.337Z,1.52
2022-09-26T08:35:54.044Z,1.77
2022-09-26T08:38:21.565Z,1.92
2022-09-26T08:41:32.600Z,1.52
2022-09-26T08:44:25.193Z,1.58
2022-09-26T08:47:05.047Z,1.50
2022-09-26T08:49:50.931Z,1.45
2022-09-26T08:52:29.421Z,1.75
2022-09-26T08:54:59.267Z,1.45
2022-09-26T08:57:42.479Z,1.50
2022-09-26T09:00:15.745Z,1.38
2022-09-26T09:02:57.958Z,1.50
2022-09-26T09:05:34.190Z,1.40
2022-09-26T09:08:07.963Z,1.50
2022-09-26T09:11:06.245Z,1.30
2022-09-26T09:13:54.814Z,1.45
2022-09-26T09:16:36.891Z,1.40
2022-09-26T09:19:28.699Z,1.85
2022-09-26T09:22:33.610Z,1.60
2022-09-26T09:25:10.527Z,1.58
2022-09-26T09:27:53.906Z,1.55
2022-09-26T09:33:12.880Z,1.95
2022-09-26T09:35:48.169Z,1.60
2022-09-26T09:38:18.315Z,1.60
2022-09-26T09:40:57.949Z,1.73
2022-09-26T09:43:42.143Z,1.77
2022-09-26T09:48:39.496Z,1.52
2022-09-26T09:51:21.918Z,1.38
2022-09-26T09:54:18.149Z,1.23
2022-09-26T09:56:54.661Z,1.20
2022-09-26T09:59:40.136Z,1.15
2022-09-26T10:02:23.282Z,1.30
2022-09-26T10:05:33.618Z,1.33
2022-09-26T10:08:00.900Z,1.20
2022-09-26T10:10:56.918Z,1.35
2022-09-26T10:13:27.108Z,1.05
2022-09-26T10:16:06.234Z,2.42
2022-09-26T10:18:33.803Z,0.70
2022-09-26T10:21:28.714Z,1.15
2022-09-26T10:23:55.530Z,0.90
2022-09-26T10:26:31.065Z,0.90
2022-09-26T10:29:20.181Z,1.42
2022-09-26T10:31:55.443Z,1.33
2022-09-26T10:34:30.828Z,1.20
2022-09-26T10:37:20.018Z,1.00
2022-09-26T10:40:14.404Z,0.93
2022-09-26T10:42:43.127Z,1.02
2022-09-26T10:45:27.453Z,1.15
2022-09-26T10:47:59.312Z,1.10
2022-09-26T10:50:30.488Z,1.30
2022-09-26T10:53:02.780Z,1.10
2022-09-26T10:55:41.863Z,0.95
2022-09-26T10:58:17.315Z,0.90
2022-09-26T11:00:46.671Z,0.80
2022-09-26T11:03:16.755Z,0.80
2022-09-26T11:05:59.888Z,0.98
2022-09-26T11:08:32.584Z,0.88
2022-09-26T11:11:05.356Z,0.90
2022-09-26T11:13:45.882Z,1.05
2022-09-26T11:16:15.525Z,0.60
2022-09-26T11:18:45.205Z,1.00
2022-09-26T11:21:29.041Z,1.10
2022-09-26T11:24:06.232Z,1.13
2022-09-26T11:26:54.779Z,2.15
2022-09-26T11:29:44.333Z,1.05
2022-09-26T11:32:17.273Z,1.10
2022-09-26T11:34:45.204Z,1.15
2022-09-26T11:37:31.592Z,0.80
2022-09-26T11:40:10.124Z,1.00
2022-09-26T11:42:59.861Z,0.77
2022-09-26T11:45:47.486Z,1.05
2022-09-26T11:48:20.435Z,1.13
2022-09-26T11:50:47.281Z,0.88
2022-09-26T11:53:35.712Z,1.00
2022-09-26T11:56:46.297Z,0.90
2022-09-26T11:59:37.862Z,0.70
2022-09-26T12:02:20.237Z,0.80
2022-09-26T12:05:08.059Z,1.40
2022-09-26T12:08:00.338Z,0.60
2022-09-26T12:10:56.714Z,0.57
2022-09-26T12:16:24.061Z,0.47
2022-09-26T12:19:19.408Z,0.40
2022-09-26T12:22:14.125Z,0.95
2022-09-26T12:25:07.283Z,0.70
2022-09-26T12:27:59.247Z,0.80
2022-09-26T12:30:34.996Z,0.60
2022-09-26T12:33:23.788Z,0.70
2022-09-26T12:36:25.925Z,0.85
2022-09-26T12:39:07.728Z,0.70
2022-09-26T12:42:11.032Z,0.68
2022-09-26T12:45:06.483Z,0.70
2022-09-26T12:47:44.302Z,0.80
2022-09-26T12:50:17.609Z,0.90
2022-09-26T12:52:59.489Z,0.52
2022-09-26T12:55:29.646Z,0.50
2022-09-26T12:58:14.373Z,0.65
2022-09-26T13:00:54.250Z,1.08
2022-09-26T13:03:34.701Z,0.80
2022-09-26T13:06:10.321Z,0.88
2022-09-26T13:09:09.559Z,0.57
2022-09-26T13:11:54.637Z,0.88
2022-09-26T13:14:57.109Z,0.93
2022-09-26T13:17:37.952Z,1.05
2022-09-26T13:20:19.684Z,0.75
2022-09-26T13:22:46.431Z,0.57
2022-09-26T13:25:20.844Z,1.00
2022-09-26T13:28:16.440Z,0.80
2022-09-26T13:30:57.982Z,0.93
2022-09-26T13:33:36.067Z,1.05
2022-09-26T13:36:04.472Z,1.10
2022-09-26T13:38:46.292Z,1.25
2022-09-26T13:41:12.941Z,1.23
2022-09-26T13:43:42.573Z,1.05
2022-09-26T13:46:17.846Z,1.40
2022-09-26T13:48:57.653Z,1.23
2022-09-26T13:51:27.110Z,1.23
2022-09-26T13:54:16.975Z,1.10
2022-09-26T13:56:47.836Z,1.30
2022-09-26T13:59:15.460Z,1.33
2022-09-26T14:02:19.872Z,1.20
2022-09-26T14:04:48.383Z,1.30
2022-09-26T14:07:36.275Z,1.50
2022-09-26T14:10:02.941Z,0.90
2022-09-26T14:12:51.315Z,1.15
2022-09-26T14:15:22.686Z,1.00
2022-09-26T14:20:29.709Z,1.20
2022-09-26T14:22:57.478Z,0.65
2022-09-26T14:25:46.168Z,1.05
2022-09-26T14:28:33.271Z,0.73
2022-09-26T14:31:15.693Z,0.70
2022-09-26T14:33:44.160Z,0.60
2022-09-26T14:36:30.416Z,0.77
2022-09-26T14:38:57.506Z,0.70
2022-09-26T14:41:31.526Z,0.98
2022-09-26T14:44:16.417Z,0.60
2022-09-26T14:46:43.508Z,0.90
2022-09-26T14:49:23.643Z,1.25
2022-09-26T14:51:56.620Z,0.75
2022-09-26T14:54:27.290Z,0.80
2022-09-26T14:57:08.019Z,0.70
2022-09-26T14:59:34.676Z,1.00
2022-09-26T15:02:21.185Z,0.90
2022-09-26T15:04:59.410Z,0.85
2022-09-26T15:07:33.844Z,0.82
2022-09-26T15:10:13.592Z,0.88
2022-09-26T15:13:04.318Z,0.85
2022-09-26T15:15:52.466Z,0.90
2022-09-26T15:18:28.263Z,0.95
2022-09-26T15:21:03.966Z,1.55
2022-09-26T15:23:33.840Z,1.00
2022-09-26T15:26:05.302Z,1.00
2022-09-26T15:28:34.737Z,0.60
2022-09-26T15:31:22.216Z,0.93
2022-09-26T15:34:00.438Z,0.95
2022-09-26T15:36:38.021Z,1.20
2022-09-26T15:39:32.763Z,0.80
2022-09-26T15:42:19.825Z,1.10
2022-09-26T15:44:58.478Z,0.90
2022-09-26T15:47:31.721Z,1.20
2022-09-26T15:50:30.167Z,1.05
2022-09-26T15:53:00.241Z,1.20
2022-09-26T15:55:38.155Z,1.30
2022-09-26T15:58:07.057Z,1.13
2022-09-26T16:00:37.406Z,1.50
2022-09-26T16:03:20.403Z,1.02
2022-09-26T16:05:47.973Z,1.30
2022-09-26T16:08:27.933Z,1.40
2022-09-26T16:11:00.210Z,1.17
2022-09-26T16:13:42.462Z,1.20
2022-09-26T16:16:16.294Z,1.20
2022-09-26T16:18:56.556Z,1.38
2022-09-26T16:21:25.888Z,1.50
2022-09-26T16:23:57.884Z,1.52
2022-09-26T16:26:30.144Z,1.80
2022-09-26T16:28:58.588Z,1.67
2022-09-26T16:31:29.421Z,1.83
2022-09-26T16:33:58.746Z,1.60
2022-09-26T16:36:31.070Z,2.10
2022-09-26T16:39:03.469Z,1.33
2022-09-26T16:44:28.770Z,1.40
2022-09-26T16:47:02.549Z,2.20
2022-09-26T16:49:39.987Z,1.77
2022-09-26T16:52:36.363Z,1.73
2022-09-26T16:55:08.630Z,1.65
2022-09-26T16:57:38.554Z,1.40
2022-09-26T17:00:35.023Z,1.52
2022-09-26T17:03:03.361Z,1.55
2022-09-26T17:05:30.195Z,1.60
2022-09-26T17:07:56.948Z,1.60
2022-09-26T17:10:25.628Z,1.70
2022-09-26T17:12:53.468Z,1.33
2022-09-26T17:15:27.303Z,1.10
2022-09-26T17:17:56.796Z,1.40
2022-09-26T17:20:24.143Z,1.33
2022-09-26T17:22:52.003Z,1.38
2022-09-26T17:25:18.811Z,1.58
2022-09-26T17:27:47.700Z,1.50
2022-09-26T17:30:17.297Z,1.55
2022-09-26T17:32:49.602Z,1.80
2022-09-26T17:35:19.171Z,1.63
2022-09-26T17:37:45.969Z,1.45
2022-09-26T17:40:24.241Z,1.40
2022-09-26T17:42:57.960Z,2.10
2022-09-26T17:45:31.906Z,1.70
2022-09-26T17:48:02.512Z,1.45
2022-09-26T17:50:32.304Z,1.50
2022-09-26T17:53:02.115Z,1.77
2022-09-26T17:55:29.797Z,1.42
2022-09-26T17:57:57.693Z,1.55
2022-09-26T18:00:24.691Z,1.75
2022-09-26T18:03:19.086Z,1.90
2022-09-26T18:05:46.254Z,1.60
2022-09-26T18:08:28.429Z,1.50
2022-09-26T18:10:58.896Z,1.90
2022-09-26T18:13:31.415Z,1.52
2022-09-26T18:16:01.165Z,1.60
2022-09-26T18:18:30.658Z,1.50
2022-09-26T18:21:03.567Z,1.77
2022-09-26T18:23:47.626Z,1.70
2022-09-26T18:26:21.171Z,2.03
2022-09-26T18:28:50.903Z,1.83
2022-09-26T18:31:24.327Z,1.80
2022-09-26T18:33:51.135Z,1.73
2022-09-26T18:36:18.591Z,2.10
2022-09-26T18:38:45.297Z,2.10
2022-09-26T18:41:12.338Z,2.05
2022-09-26T18:43:42.436Z,1.70
2022-09-26T18:46:13.528Z,1.92
2022-09-26T18:48:41.689Z,1.80
2022-09-26T18:51:10.835Z,1.55
2022-09-26T18:53:40.171Z,1.77
2022-09-26T18:56:26.728Z,1.35
2022-09-26T18:58:54.297Z,1.92
2022-09-26T19:01:38.334Z,1.60
2022-09-26T19:04:07.343Z,1.83
2022-09-26T19:06:41.694Z,1.30
2022-09-26T19:09:15.160Z,1.40
2022-09-26T19:11:42.632Z,1.30
2022-09-26T19:14:21.010Z,1.38
2022-09-26T19:16:50.027Z,1.35
2022-09-26T19:19:17.860Z,1.27
2022-09-26T19:22:00.093Z,1.33
2022-09-26T19:24:33.564Z,1.20
2022-09-26T19:27:07.944Z,1.35
2022-09-26T19:29:40.315Z,1.30
2022-09-26T19:32:16.794Z,1.48
2022-09-26T19:34:47.770Z,1.42
2022-09-26T19:37:14.739Z,1.13
2022-09-26T19:39:41.808Z,1.38
2022-09-26T19:42:08.526Z,1.30
2022-09-26T19:44:35.942Z,1.42
2022-09-26T19:47:03.898Z,1.30
2022-09-26T19:49:32.644Z,1.23
2022-09-26T19:52:02.567Z,1.30
2022-09-26T19:54:30.244Z,2.90
2022-09-26T19:56:57.327Z,1.33
2022-09-26T19:59:27.478Z,1.40
2022-09-26T20:01:54.926Z,1.27
2022-09-26T20:04:22.201Z,1.10
2022-09-26T20:06:49.157Z,0.95
2022-09-26T20:09:18.537Z,1.10
2022-09-26T20:11:46.117Z,1.08
2022-09-26T20:14:25.410Z,0.80
2022-09-26T20:16:55.890Z,1.00
2022-09-26T20:19:34.882Z,1.08
2022-09-26T20:22:03.880Z,0.88
2022-09-26T20:24:32.139Z,0.93
2022-09-26T20:27:02.042Z,0.90
2022-09-26T20:29:29.503Z,0.90
2022-09-26T20:31:56.630Z,0.80
2022-09-26T20:34:23.384Z,0.90
2022-09-26T20:36:51.541Z,1.02
2022-09-26T20:39:24.052Z,0.90
2022-09-26T20:41:52.066Z,1.05
2022-09-26T20:44:24.483Z,0.93
2022-09-26T20:46:56.230Z,0.77
2022-09-26T20:49:43.880Z,0.88
2022-09-26T20:52:24.168Z,0.70
2022-09-26T20:54:52.299Z,0.90
2022-09-26T20:57:19.858Z,0.63
2022-09-26T20:59:47.026Z,0.80
2022-09-26T21:02:17.093Z,0.90
2022-09-26T21:04:43.934Z,0.80
2022-09-26T21:07:15.161Z,1.05
2022-09-26T21:09:45.338Z,0.80
2022-09-26T21:12:13.264Z,0.80
2022-09-26T21:14:39.970Z,0.82
2022-09-26T21:17:28.237Z,0.88
2022-09-26T21:19:55.910Z,0.70
2022-09-26T21:22:26.392Z,0.98
2022-09-26T21:24:54.056Z,0.88
2022-09-26T21:27:20.788Z,1.00
2022-09-26T21:29:47.813Z,0.80
2022-09-26T21:32:19.439Z,0.70
2022-09-26T21:37:29.447Z,0.88
2022-09-26T21:39:56.321Z,1.05
2022-09-26T21:42:25.680Z,0.95
2022-09-26T21:44:58.863Z,0.95
2022-09-26T21:47:27.038Z,0.82
2022-09-26T21:49:54.569Z,0.80
2022-09-26T21:52:30.922Z,0.88
2022-09-26T21:55:00.410Z,0.75
2022-09-26T21:57:33.902Z,0.95
2022-09-26T22:00:01.446Z,1.02
2022-09-26T22:02:28.613Z,1.00
2022-09-26T22:04:55.319Z,0.90
2022-09-26T22:07:22.112Z,0.60
2022-09-26T22:09:48.918Z,0.70
2022-09-26T22:12:15.740Z,0.80
2022-09-26T22:14:42.510Z,0.77
2022-09-26T22:17:09.722Z,0.90
2022-09-26T22:19:36.470Z,0.68
2022-09-26T22:22:03.707Z,0.70
2022-09-26T22:24:30.592Z,0.85
2022-09-26T22:26:57.430Z,0.70
2022-09-26T22:29:24.354Z,0.90
2022-09-26T22:31:51.094Z,1.00
2022-09-26T22:34:18.006Z,0.70
2022-09-26T22:36:44.699Z,0.70
2022-09-26T22:39:11.489Z,0.73
2022-09-26T22:41:38.248Z,0.80
2022-09-26T22:44:05.006Z,0.85
2022-09-26T22:46:35.995Z,0.70
2022-09-26T22:49:02.913Z,0.70
2022-09-26T22:51:29.794Z,0.65
2022-09-26T22:53:56.478Z,0.65
2022-09-26T22:56:23.495Z,0.98
2022-09-26T22:58:51.653Z,0.70
2022-09-26T23:01:23.902Z,0.68
2022-09-26T23:03:54.976Z,0.70
2022-09-26T23:06:23.007Z,0.60
2022-09-26T23:08:50.085Z,0.60
2022-09-26T23:11:18.300Z,0.68
2022-09-26T23:13:46.531Z,0.73
2022-09-26T23:16:20.289Z,1.00
2022-09-26T23:18:48.743Z,0.68
2022-09-26T23:21:21.685Z,0.65
2022-09-26T23:23:54.893Z,1.00
2022-09-26T23:26:23.399Z,0.80
2022-09-26T23:28:52.314Z,0.93
2022-09-26T23:31:19.787Z,1.13
2022-09-26T23:33:47.640Z,0.80
2022-09-26T23:36:14.860Z,0.60
2022-09-26T23:38:41.658Z,0.90
2022-09-26T23:41:10.910Z,0.90
2022-09-26T23:43:38.752Z,0.63
2022-09-26T23:46:05.967Z,1.05
2022-09-26T23:48:33.142Z,0.80
2022-09-26T23:50:59.933Z,0.95
2022-09-26T23:53:26.847Z,0.70
2022-09-26T23:56:01.504Z,0.80
2022-09-26T23:58:28.638Z,1.00
